Time;durP1;ratioP1;P1;durP2;ratioP2;P2;SDS_P1;SDS_P2;PMS_P1;PMS_P2;Temp;Humidity;BMP_temperature;BMP_pressure;BME280_temperature;BME280_humidity;BME280_pressure;Samples;Min_cycle;Max_cycle;Signal;HPM_P1;HPM_P2
2023/12/11 00:01:50;;;;;;;1.70;0.80;;;;;;;10.39;100.00;97151.88;4145484;28;21067;-89
2023/12/11 00:03:53;;;;;;;2.80;1.00;;;;;;;10.39;100.00;97160.50;4140382;28;21195;-88
2023/12/11 00:05:57;;;;;;;2.17;0.63;;;;;;;10.37;100.00;97159.81;4136871;28;20681;-88
2023/12/11 00:08:00;;;;;;;1.40;0.60;;;;;;;10.39;100.00;97167.53;4128507;28;21257;-88
2023/12/11 00:10:03;;;;;;;2.30;0.80;;;;;;;10.40;100.00;97164.78;4160016;28;20664;-88
2023/12/11 00:12:07;;;;;;;1.40;0.80;;;;;;;10.43;100.00;97167.16;4146512;28;20637;-88
2023/12/11 00:14:11;;;;;;;1.83;0.70;;;;;;;10.41;100.00;97155.19;4148281;28;21040;-88
2023/12/11 00:16:17;;;;;;;1.50;0.80;;;;;;;10.38;100.00;97153.63;4121803;28;20623;-88
2023/12/11 00:18:22;;;;;;;1.77;0.83;;;;;;;10.35;100.00;97138.25;4161189;28;20675;-88
2023/12/11 00:20:25;;;;;;;2.50;0.80;;;;;;;10.40;100.00;97143.09;4145778;28;20624;-89
2023/12/11 00:22:29;;;;;;;3.30;0.70;;;;;;;10.43;100.00;97140.22;4145171;28;20724;-88
2023/12/11 00:24:32;;;;;;;1.50;0.60;;;;;;;10.42;100.00;97143.81;4126438;28;20637;-88
2023/12/11 00:26:36;;;;;;;2.23;0.87;;;;;;;10.44;100.00;97145.31;4124035;28;21326;-88
2023/12/11 00:28:39;;;;;;;1.57;0.80;;;;;;;10.46;100.00;97143.44;4144827;28;20677;-88
2023/12/11 00:30:44;;;;;;;1.90;1.00;;;;;;;10.52;100.00;97150.72;4160833;28;21246;-88
2023/12/11 00:32:48;;;;;;;3.27;1.47;;;;;;;10.57;100.00;97150.34;4136529;28;20643;-88
2023/12/11 00:34:51;;;;;;;3.47;0.90;;;;;;;10.63;100.00;97166.31;4120684;28;20648;-88
2023/12/11 00:36:55;;;;;;;3.10;0.80;;;;;;;10.64;100.00;97154.09;4137893;28;20665;-88
2023/12/11 00:38:58;;;;;;;2.67;0.87;;;;;;;10.69;99.40;97159.75;4142919;28;20645;-88
2023/12/11 00:41:01;;;;;;;3.03;0.70;;;;;;;10.71;100.00;97158.66;4144427;28;20634;-88
2023/12/11 00:43:05;;;;;;;1.60;0.70;;;;;;;10.75;99.16;97172.28;4141402;28;21030;-89
2023/12/11 00:45:08;;;;;;;1.40;0.50;;;;;;;10.80;98.98;97168.34;4120617;28;20631;-88
2023/12/11 00:47:13;;;;;;;1.63;0.70;;;;;;;10.86;99.23;97168.63;4142230;28;20686;-88
2023/12/11 00:49:16;;;;;;;1.87;0.70;;;;;;;10.92;99.10;97165.50;4155611;28;20641;-88
2023/12/11 00:51:20;;;;;;;1.60;0.70;;;;;;;10.98;98.65;97165.00;4142975;28;21063;-88
2023/12/11 00:53:24;;;;;;;1.70;0.70;;;;;;;11.02;99.31;97163.78;4157925;28;21215;-88
2023/12/11 00:55:27;;;;;;;2.80;1.00;;;;;;;11.04;99.11;97161.88;4142006;28;20677;-88
2023/12/11 00:57:30;;;;;;;4.63;1.17;;;;;;;11.09;99.02;97170.13;4139738;28;20623;-89
2023/12/11 00:59:33;;;;;;;2.73;0.70;;;;;;;11.11;97.05;97172.59;4122750;28;20638;-88
2023/12/11 01:01:36;;;;;;;1.50;0.70;;;;;;;11.11;98.03;97160.41;4141217;28;20622;-88
2023/12/11 01:03:41;;;;;;;1.50;0.70;;;;;;;11.16;98.76;97170.44;4137005;28;20650;-89
2023/12/11 01:05:45;;;;;;;2.57;0.70;;;;;;;11.19;97.55;97176.22;4138263;28;20638;-88
2023/12/11 01:07:49;;;;;;;2.20;0.80;;;;;;;11.23;97.63;97177.63;4123774;28;20655;-88
2023/12/11 01:09:51;;;;;;;2.27;0.90;;;;;;;11.25;96.92;97175.69;4141954;28;20689;-88
2023/12/11 01:11:55;;;;;;;2.90;0.90;;;;;;;11.29;97.54;97182.31;4153874;28;20718;-88
2023/12/11 01:13:57;;;;;;;4.93;1.00;;;;;;;11.30;97.83;97183.94;4124607;28;20632;-88
2023/12/11 01:16:00;;;;;;;2.00;1.00;;;;;;;11.26;96.54;97189.56;4135281;28;20632;-88
2023/12/11 01:18:04;;;;;;;2.10;0.87;;;;;;;11.28;96.49;97175.44;4133306;28;20994;-88
2023/12/11 01:20:10;;;;;;;1.60;0.70;;;;;;;11.32;95.86;97176.81;4151249;28;20630;-88
2023/12/11 01:22:13;;;;;;;3.10;0.80;;;;;;;11.34;96.72;97174.91;4154607;28;20691;-89
2023/12/11 01:24:17;;;;;;;1.97;0.90;;;;;;;11.32;96.73;97176.81;4137769;28;20622;-88
2023/12/11 01:26:20;;;;;;;3.00;0.77;;;;;;;11.32;96.71;97192.47;4139872;28;20686;-88
2023/12/11 01:28:23;;;;;;;5.43;1.00;;;;;;;11.27;97.21;97193.84;4136639;28;21420;-88
2023/12/11 01:30:27;;;;;;;4.37;0.77;;;;;;;11.19;100.00;97185.84;4136112;28;20627;-89
2023/12/11 01:32:30;;;;;;;1.57;0.80;;;;;;;11.09;100.00;97190.19;4143032;28;20724;-88
2023/12/11 01:34:33;;;;;;;1.60;0.80;;;;;;;10.95;100.00;97196.56;4120818;28;20697;-88
2023/12/11 01:36:39;;;;;;;1.90;0.70;;;;;;;10.90;100.00;97190.09;4136551;28;20676;-88
2023/12/11 01:38:42;;;;;;;1.67;0.80;;;;;;;10.87;100.00;97200.78;4139009;28;20611;-89
2023/12/11 01:40:46;;;;;;;2.60;0.80;;;;;;;10.94;100.00;97201.91;4142231;28;20649;-89
2023/12/11 01:42:49;;;;;;;2.17;0.70;;;;;;;11.00;100.00;97196.16;4141319;28;20672;-89
2023/12/11 01:44:54;;;;;;;2.33;0.70;;;;;;;11.04;100.00;97197.56;4143174;28;20665;-89
2023/12/11 01:46:57;;;;;;;1.60;0.80;;;;;;;11.08;100.00;97191.13;4141651;28;20661;-89
2023/12/11 01:49:01;;;;;;;1.50;0.80;;;;;;;11.11;100.00;97203.91;4145589;28;21250;-89
2023/12/11 01:51:05;;;;;;;1.60;0.70;;;;;;;11.13;100.00;97191.59;4161410;28;20641;-89
2023/12/11 01:53:09;;;;;;;2.40;0.70;;;;;;;11.14;100.00;97204.50;4141994;28;20638;-89
2023/12/11 01:55:12;;;;;;;2.87;0.70;;;;;;;11.15;100.00;97211.34;4159291;28;20633;-89
2023/12/11 01:57:15;;;;;;;2.60;0.80;;;;;;;11.15;100.00;97190.47;4142029;28;20668;-89
2023/12/11 01:59:19;;;;;;;1.97;0.70;;;;;;;11.15;100.00;97190.47;4138774;28;20672;-89
2023/12/11 02:01:24;;;;;;;2.50;0.93;;;;;;;11.12;100.00;97189.91;4156864;28;21067;-89
2023/12/11 02:03:28;;;;;;;2.43;0.80;;;;;;;11.10;99.95;97184.84;4135559;28;20654;-88
2023/12/11 02:05:31;;;;;;;1.60;0.73;;;;;;;11.08;100.00;97186.75;4143338;28;20622;-89
2023/12/11 02:07:35;;;;;;;2.97;1.47;;;;;;;11.07;100.00;97174.66;4128835;28;21229;-89
2023/12/11 02:09:40;;;;;;;2.87;0.83;;;;;;;11.09;99.44;97177.13;4126643;28;20623;-89
2023/12/11 02:11:44;;;;;;;2.10;0.90;;;;;;;11.10;99.42;97176.19;4160660;28;21058;-89
2023/12/11 02:13:49;;;;;;;1.80;0.90;;;;;;;11.10;100.00;97178.78;4158436;28;20629;-89
2023/12/11 02:15:51;;;;;;;1.83;0.80;;;;;;;11.08;100.00;97189.38;4144629;28;20643;-89
2023/12/11 02:17:55;;;;;;;2.50;1.53;;;;;;;11.07;98.93;97181.66;4141709;28;20650;-89
2023/12/11 02:20:00;;;;;;;2.17;0.80;;;;;;;11.00;98.84;97185.72;4142913;28;20997;-89
2023/12/11 02:22:04;;;;;;;2.17;1.00;;;;;;;10.90;100.00;97180.47;4129676;28;21425;-89
2023/12/11 02:24:10;;;;;;;1.60;0.70;;;;;;;10.85;99.58;97177.44;4125699;28;20627;-89
2023/12/11 02:26:15;;;;;;;1.90;0.80;;;;;;;10.80;99.28;97170.13;4142051;28;20624;-89
2023/12/11 02:28:18;;;;;;;1.70;0.70;;;;;;;10.76;100.00;97166.09;4144566;28;21120;-89
2023/12/11 02:30:21;;;;;;;3.50;1.13;;;;;;;10.72;98.96;97159.47;4159920;28;20631;-89
2023/12/11 02:32:24;;;;;;;1.90;0.70;;;;;;;10.67;98.59;97167.69;4144610;28;20650;-89
2023/12/11 02:34:28;;;;;;;2.50;0.90;;;;;;;10.64;98.75;97164.53;4138176;28;21262;-89
2023/12/11 02:36:31;;;;;;;2.90;0.83;;;;;;;10.59;98.05;97166.69;4145820;28;20633;-88
2023/12/11 02:38:35;;;;;;;1.30;0.63;;;;;;;10.54;99.56;97171.44;4134654;28;20631;-89
2023/12/11 02:40:37;;;;;;;1.27;0.60;;;;;;;10.49;99.08;97171.84;4136507;28;20738;-89
2023/12/11 02:42:48;;;;;;;2.70;0.93;;;;;;;10.45;100.00;97173.03;4154143;28;20629;-88
2023/12/11 02:44:51;;;;;;;1.90;0.83;;;;;;;10.41;100.00;97176.03;4139552;28;20622;-88
2023/12/11 02:46:54;;;;;;;2.60;0.70;;;;;;;10.41;100.00;97176.84;4153347;28;20633;-89
2023/12/11 02:48:57;;;;;;;1.70;0.70;;;;;;;10.40;100.00;97180.44;4145450;28;20684;-89
2023/12/11 02:51:01;;;;;;;2.07;0.57;;;;;;;10.41;100.00;97187.28;4122994;28;20717;-89
2023/12/11 02:53:05;;;;;;;1.30;0.70;;;;;;;10.41;100.00;97170.81;4141980;28;20640;-89
2023/12/11 02:55:08;;;;;;;1.77;0.77;;;;;;;10.42;100.00;97167.28;4127436;28;20631;-89
2023/12/11 02:57:12;;;;;;;2.17;1.07;;;;;;;10.47;100.00;97170.31;4143054;28;20657;-89
2023/12/11 02:59:17;;;;;;;1.80;0.60;;;;;;;10.50;100.00;97170.88;4129660;28;21165;-89
2023/12/11 03:01:20;;;;;;;2.37;1.10;;;;;;;10.55;100.00;97176.53;4146333;28;20691;-89
2023/12/11 03:03:24;;;;;;;1.70;0.70;;;;;;;10.61;100.00;97173.41;4151512;28;20692;-89
2023/12/11 03:05:26;;;;;;;2.50;0.73;;;;;;;10.62;100.00;97180.28;4148271;28;20630;-89
2023/12/11 03:07:29;;;;;;;2.03;1.03;;;;;;;10.65;100.00;97185.25;4146571;28;20661;-89
2023/12/11 03:09:33;;;;;;;3.50;1.03;;;;;;;10.70;100.00;97182.25;4143559;28;20714;-89
2023/12/11 03:11:36;;;;;;;1.87;1.13;;;;;;;10.69;100.00;97178.00;4147116;28;20622;-89
2023/12/11 03:13:39;;;;;;;5.10;1.43;;;;;;;10.67;100.00;97179.91;4147853;28;20633;-89
2023/12/11 03:15:44;;;;;;;3.03;1.50;;;;;;;10.67;100.00;97182.53;4158891;28;20700;-89
2023/12/11 03:17:47;;;;;;;3.30;1.50;;;;;;;10.70;100.00;97179.66;4148045;28;20653;-89
2023/12/11 03:19:49;;;;;;;2.10;1.07;;;;;;;10.73;100.00;97179.41;4151629;28;20630;-89
2023/12/11 03:21:55;;;;;;;2.10;0.90;;;;;;;10.76;100.00;97171.31;4148573;28;20709;-89
2023/12/11 03:23:59;;;;;;;2.57;1.00;;;;;;;10.76;100.00;97163.50;4147229;28;20673;-89
2023/12/11 03:26:02;;;;;;;2.47;1.20;;;;;;;10.71;99.08;97161.28;4148455;28;20621;-89
2023/12/11 03:28:05;;;;;;;1.70;0.80;;;;;;;10.69;100.00;97154.53;4146253;28;20663;-89
2023/12/11 03:30:09;;;;;;;3.10;1.00;;;;;;;10.67;99.94;97151.22;4143941;28;20642;-89
2023/12/11 03:32:15;;;;;;;2.20;1.10;;;;;;;10.63;99.68;97140.25;4129773;28;20657;-89
2023/12/11 03:34:18;;;;;;;2.00;0.87;;;;;;;10.68;99.98;97142.47;4132221;28;21299;-89
2023/12/11 03:36:22;;;;;;;1.90;0.70;;;;;;;10.75;100.00;97149.66;4162863;28;20629;-89
2023/12/11 03:38:25;;;;;;;1.67;0.70;;;;;;;10.74;100.00;97142.75;4132203;28;20627;-89
2023/12/11 03:40:27;;;;;;;1.67;0.70;;;;;;;10.71;100.00;97147.41;4149246;28;20638;-89
2023/12/11 03:42:31;;;;;;;1.47;0.63;;;;;;;10.67;100.00;97146.81;4133287;28;21518;-89
2023/12/11 03:44:35;;;;;;;1.43;0.73;;;;;;;10.65;100.00;97147.94;4164395;28;20632;-89
2023/12/11 03:46:38;;;;;;;1.48;0.70;;;;;;;10.72;100.00;97149.06;4148457;28;20629;-90
2023/12/11 03:48:43;;;;;;;1.80;0.63;;;;;;;10.77;100.00;97152.13;4148580;28;20215;-89
2023/12/11 03:50:47;;;;;;;2.53;0.83;;;;;;;10.79;100.00;97151.03;4146553;28;20630;-89
2023/12/11 03:52:50;;;;;;;1.47;0.80;;;;;;;10.77;100.00;97144.31;4148656;28;20715;-89
2023/12/11 03:54:53;;;;;;;1.93;0.87;;;;;;;10.81;100.00;97156.97;4146379;28;20637;-89
2023/12/11 03:56:55;;;;;;;1.80;0.77;;;;;;;10.87;100.00;97148.63;4133926;28;20623;-89
2023/12/11 03:58:59;;;;;;;2.77;0.80;;;;;;;10.89;100.00;97157.94;4149950;28;21284;-89
2023/12/11 04:01:01;;;;;;;1.60;0.60;;;;;;;10.87;100.00;97153.84;4143530;28;20623;-89
2023/12/11 04:03:05;;;;;;;2.10;0.67;;;;;;;10.84;100.00;97143.66;4131881;28;20627;-89
2023/12/11 04:05:09;;;;;;;5.83;0.70;;;;;;;10.81;100.00;97136.91;4147380;28;20673;-89
2023/12/11 04:07:13;;;;;;;1.10;0.40;;;;;;;10.80;100.00;97136.22;4147427;28;20671;-89
2023/12/11 04:09:16;;;;;;;1.40;0.60;;;;;;;10.86;100.00;97139.13;4144666;28;21245;-88
2023/12/11 04:11:18;;;;;;;2.00;0.67;;;;;;;10.90;100.00;97132.72;4140384;28;20634;-89
2023/12/11 04:13:22;;;;;;;1.30;0.50;;;;;;;10.93;100.00;97140.25;4124537;28;20662;-89
2023/12/11 04:15:25;;;;;;;2.17;1.00;;;;;;;10.92;100.00;97134.22;4141117;28;20999;-89
2023/12/11 04:17:28;;;;;;;1.60;0.60;;;;;;;10.93;100.00;97121.97;4145353;28;20630;-89
2023/12/11 04:19:32;;;;;;;2.23;0.60;;;;;;;10.96;100.00;97117.34;4140415;28;20653;-89
2023/12/11 04:21:36;;;;;;;1.90;0.60;;;;;;;10.98;100.00;97112.81;4136881;28;20666;-89
2023/12/11 04:23:39;;;;;;;1.60;0.70;;;;;;;11.02;100.00;97106.38;4157821;28;21212;-89
2023/12/11 04:25:43;;;;;;;1.50;0.50;;;;;;;11.06;100.00;97112.16;4158246;28;20644;-88
2023/12/11 04:27:46;;;;;;;1.70;0.80;;;;;;;11.08;100.00;97113.69;4144593;28;20646;-88
2023/12/11 04:29:48;;;;;;;1.53;0.60;;;;;;;11.08;100.00;97111.09;4157249;28;21019;-88
2023/12/11 04:31:52;;;;;;;2.70;0.60;;;;;;;11.08;100.00;97118.06;4123921;28;20641;-88
2023/12/11 04:33:56;;;;;;;1.93;0.70;;;;;;;11.09;100.00;97138.81;4140380;28;20617;-88
2023/12/11 04:35:59;;;;;;;1.40;0.50;;;;;;;11.14;100.00;97136.66;4147330;28;20618;-89
2023/12/11 04:38:04;;;;;;;1.73;0.70;;;;;;;11.20;100.00;97138.75;4140363;28;20622;-89
2023/12/11 04:40:09;;;;;;;1.30;0.53;;;;;;;11.23;100.00;97133.25;4142966;28;20733;-89
2023/12/11 04:42:12;;;;;;;1.23;0.60;;;;;;;11.26;100.00;97138.22;4143451;28;20626;-89
2023/12/11 04:44:15;;;;;;;1.30;0.60;;;;;;;11.28;100.00;97139.72;4127172;28;20729;-88
2023/12/11 04:46:19;;;;;;;1.80;0.70;;;;;;;11.29;100.00;97148.38;4143332;28;20676;-88
2023/12/11 04:48:22;;;;;;;1.40;0.70;;;;;;;11.33;100.00;97141.94;4127038;28;20646;-89
2023/12/11 04:50:25;;;;;;;2.00;0.60;;;;;;;11.34;100.00;97138.38;4142839;28;21066;-89
2023/12/11 04:52:29;;;;;;;1.60;0.67;;;;;;;11.37;100.00;97153.75;4142456;28;20658;-88
2023/12/11 04:54:33;;;;;;;2.13;0.90;;;;;;;11.36;100.00;97152.09;4138720;28;20618;-89
2023/12/11 04:56:37;;;;;;;2.00;0.80;;;;;;;11.35;100.00;97151.28;4144853;28;20626;-88
2023/12/11 04:58:40;;;;;;;1.70;0.70;;;;;;;11.33;100.00;97140.13;4122839;28;20617;-89
2023/12/11 05:00:42;;;;;;;2.07;0.77;;;;;;;11.35;100.00;97145.22;4148816;28;20613;-89
2023/12/11 05:02:46;;;;;;;2.13;0.60;;;;;;;11.29;100.00;97138.75;4140494;28;20654;-88
2023/12/11 05:04:49;;;;;;;1.20;0.40;;;;;;;11.30;100.00;97142.19;4157252;28;20991;-89
2023/12/11 05:06:52;;;;;;;2.70;0.80;;;;;;;11.33;100.00;97142.75;4143773;28;20741;-89
2023/12/11 05:08:56;;;;;;;4.03;0.73;;;;;;;11.35;100.00;97142.59;4119184;28;21234;-89
2023/12/11 05:11:00;;;;;;;1.47;0.60;;;;;;;11.35;100.00;97130.41;4143469;28;20741;-89
2023/12/11 05:13:03;;;;;;;1.50;0.90;;;;;;;11.25;100.00;97130.50;4143283;28;20626;-88
2023/12/11 05:15:07;;;;;;;1.40;0.70;;;;;;;11.24;100.00;97134.06;4142557;28;20733;-89
2023/12/11 05:17:10;;;;;;;1.47;0.73;;;;;;;11.20;100.00;97135.28;4128561;28;20631;-90
2023/12/11 05:19:12;;;;;;;1.77;0.83;;;;;;;11.16;100.00;97126.91;4127394;28;21260;-89
2023/12/11 05:21:16;;;;;;;2.23;0.80;;;;;;;11.13;100.00;97119.34;4145024;28;20627;-89
2023/12/11 05:23:18;;;;;;;1.40;0.80;;;;;;;11.07;100.00;97125.06;4139674;28;20728;-89
2023/12/11 05:25:21;;;;;;;1.40;0.70;;;;;;;11.05;100.00;97124.41;4135688;28;20626;-89
2023/12/11 05:27:26;;;;;;;1.60;0.70;;;;;;;11.07;100.00;97129.47;4144815;28;20633;-89
2023/12/11 05:29:30;;;;;;;1.30;0.67;;;;;;;11.06;100.00;97138.25;4141601;28;20706;-89
2023/12/11 05:31:33;;;;;;;1.87;0.70;;;;;;;11.03;100.00;97126.28;4143235;28;20659;-89
2023/12/11 05:33:36;;;;;;;1.40;0.60;;;;;;;11.02;100.00;97140.31;4137100;28;21308;-88
2023/12/11 05:35:39;;;;;;;1.60;0.70;;;;;;;11.04;100.00;97135.78;4143587;28;20729;-88
2023/12/11 05:37:42;;;;;;;1.50;0.80;;;;;;;11.07;100.00;97130.28;4143971;28;21059;-89
2023/12/11 05:39:46;;;;;;;2.67;0.90;;;;;;;11.06;100.00;97118.19;4140552;28;20619;-88
2023/12/11 05:42:03;;;;;;;4.87;0.90;;;;;;;11.04;100.00;97109.69;4125406;28;20679;-89
2023/12/11 05:44:08;;;;;;;3.23;0.80;;;;;;;11.02;100.00;97105.53;4144976;28;20724;-89
2023/12/11 05:46:13;;;;;;;1.70;1.10;;;;;;;11.00;100.00;97116.09;4123221;28;20646;-88
2023/12/11 05:48:17;;;;;;;1.60;0.70;;;;;;;10.97;100.00;97118.97;4127344;28;20640;-89
2023/12/11 05:50:21;;;;;;;1.50;0.70;;;;;;;10.95;100.00;97107.03;4123130;28;20641;-89
2023/12/11 05:52:23;;;;;;;2.93;0.97;;;;;;;10.97;100.00;97098.09;4141232;28;20653;-89
2023/12/11 05:54:26;;;;;;;1.90;0.87;;;;;;;10.99;100.00;97092.75;4139738;28;20639;-89
2023/12/11 05:56:30;;;;;;;2.80;0.90;;;;;;;11.00;100.00;97090.03;4119335;28;20626;-88
2023/12/11 05:58:33;;;;;;;1.73;0.70;;;;;;;11.00;100.00;97086.59;4155514;28;20663;-89
2023/12/11 06:00:37;;;;;;;1.70;0.80;;;;;;;10.97;100.00;97092.91;4124766;28;20649;-88
2023/12/11 06:02:41;;;;;;;2.67;0.97;;;;;;;10.97;100.00;97100.72;4155544;28;20768;-88
2023/12/11 06:04:44;;;;;;;1.87;1.00;;;;;;;10.99;100.00;97113.63;4140774;28;20618;-87
2023/12/11 06:06:48;;;;;;;3.50;0.93;;;;;;;10.99;100.00;97119.69;4124694;28;20623;-88
2023/12/11 06:08:51;;;;;;;1.73;0.90;;;;;;;10.98;100.00;97125.84;4138713;28;21067;-88
2023/12/11 06:10:55;;;;;;;1.50;0.80;;;;;;;10.93;100.00;97120.22;4137883;28;20671;-88
2023/12/11 06:12:58;;;;;;;1.80;0.73;;;;;;;10.91;100.00;97119.50;4138863;28;20622;-88
2023/12/11 06:15:01;;;;;;;2.40;1.00;;;;;;;10.92;100.00;97112.53;4123130;28;20627;-89
2023/12/11 06:17:06;;;;;;;1.70;0.90;;;;;;;10.93;100.00;97101.09;4139087;28;20615;-89
2023/12/11 06:19:10;;;;;;;3.50;1.00;;;;;;;10.91;100.00;97110.84;4137398;28;20688;-88
2023/12/11 06:21:19;;;;;;;2.00;0.73;;;;;;;10.89;100.00;97097.94;4140933;28;20627;-85
2023/12/11 06:23:23;;;;;;;1.90;1.20;;;;;;;10.87;100.00;97096.44;4140313;28;20626;-90
2023/12/11 06:25:26;;;;;;;2.03;1.20;;;;;;;10.82;100.00;97089.00;4149640;28;20637;-91
2023/12/11 06:27:29;;;;;;;3.53;1.40;;;;;;;10.87;100.00;97096.44;4120391;28;21717;-91
2023/12/11 06:29:33;;;;;;;2.60;1.80;;;;;;;10.88;100.00;97103.28;4153115;28;20678;-91
2023/12/11 06:31:37;;;;;;;2.40;1.20;;;;;;;10.90;100.00;97104.81;4134543;28;20671;-91
2023/12/11 06:33:42;;;;;;;2.30;1.27;;;;;;;10.89;100.00;97108.38;4157367;28;20629;-92
2023/12/11 06:35:45;;;;;;;2.57;1.23;;;;;;;10.88;99.35;97117.19;4158515;28;20628;-92
2023/12/11 06:37:49;;;;;;;1.50;0.80;;;;;;;10.90;100.00;97110.03;4143226;28;20626;-92
2023/12/11 06:39:52;;;;;;;2.90;0.97;;;;;;;10.94;100.00;97113.22;4126496;28;20623;-90
2023/12/11 06:41:55;;;;;;;10.27;1.50;;;;;;;10.97;100.00;97103.31;4124453;28;20616;-89
2023/12/11 06:44:01;;;;;;;2.53;1.00;;;;;;;11.00;100.00;97092.63;4140561;28;20619;-91
2023/12/11 06:46:04;;;;;;;1.60;0.80;;;;;;;11.04;100.00;97096.63;4138720;28;20658;-92
2023/12/11 06:48:08;;;;;;;2.17;1.10;;;;;;;11.08;100.00;97084.16;4122939;28;21060;-93
2023/12/11 06:50:13;;;;;;;1.77;1.03;;;;;;;11.09;100.00;97085.81;4120808;28;20746;-92
2023/12/11 06:52:17;;;;;;;1.80;1.00;;;;;;;11.01;100.00;97078.63;4145403;28;20626;-92
2023/12/11 06:54:20;;;;;;;2.03;0.90;;;;;;;10.99;99.74;97074.50;4138210;28;20737;-90
2023/12/11 06:56:24;;;;;;;2.27;1.13;;;;;;;10.97;99.93;97079.84;4137798;28;20631;-88
2023/12/11 06:58:27;;;;;;;3.40;1.70;;;;;;;10.96;100.00;97091.25;4126188;28;20619;-86
2023/12/11 07:00:31;;;;;;;2.43;1.60;;;;;;;10.95;100.00;97071.34;4140453;28;20617;-87
2023/12/11 07:02:34;;;;;;;3.20;1.70;;;;;;;10.96;99.73;97091.25;4142101;28;20672;-87
2023/12/11 07:04:38;;;;;;;3.90;2.83;;;;;;;10.95;100.00;97100.03;4139685;28;20750;-87
2023/12/11 07:06:43;;;;;;;7.57;3.00;;;;;;;10.94;99.85;97098.38;4118274;28;21268;-87
2023/12/11 07:08:46;;;;;;;39.20;31.57;;;;;;;10.92;99.90;97095.06;4136916;28;21032;-86
2023/12/11 07:10:49;;;;;;;17.80;14.60;;;;;;;10.96;100.00;97096.47;4132194;28;20660;-87
2023/12/11 07:12:53;;;;;;;33.73;23.17;;;;;;;11.00;99.93;97092.63;4125024;28;20624;-88
2023/12/11 07:14:56;;;;;;;4.80;3.10;;;;;;;10.98;100.00;97089.34;4122875;28;20620;-88
2023/12/11 07:17:00;;;;;;;5.33;3.20;;;;;;;10.97;100.00;97092.06;4126949;28;20638;-88
2023/12/11 07:19:04;;;;;;;4.90;4.10;;;;;;;10.90;99.06;97081.34;4141989;28;20649;-87
2023/12/11 07:21:09;;;;;;;6.77;5.80;;;;;;;10.87;99.74;97081.63;4123604;28;21565;-87
2023/12/11 07:23:15;;;;;;;10.53;9.47;;;;;;;10.90;100.00;97070.91;4142204;28;21003;-86
2023/12/11 07:25:18;;;;;;;5.70;4.60;;;;;;;10.89;99.93;97069.25;4145765;28;20693;-86
2023/12/11 07:27:22;;;;;;;10.93;9.80;;;;;;;10.91;98.81;97067.34;4129573;28;20617;-86
2023/12/11 07:29:25;;;;;;;10.13;7.50;;;;;;;10.91;99.94;97069.94;4121165;28;21009;-85
2023/12/11 07:31:27;;;;;;;20.23;16.57;;;;;;;10.90;100.00;97070.09;4143330;28;20786;-85
2023/12/11 07:33:31;;;;;;;3.43;2.73;;;;;;;10.91;99.51;97062.13;4130061;28;20647;-86
2023/12/11 07:35:35;;;;;;;2.80;1.83;;;;;;;10.93;98.53;97064.59;4121209;28;20636;-86
2023/12/11 07:37:41;;;;;;;19.60;17.37;;;;;;;10.95;98.23;97066.13;4123163;28;20630;-86
2023/12/11 07:39:45;;;;;;;5.40;3.97;;;;;;;10.97;99.34;97074.63;4138447;28;20638;-87
2023/12/11 07:41:49;;;;;;;30.10;23.53;;;;;;;10.98;99.08;97072.88;4137579;28;20638;-86
2023/12/11 07:43:52;;;;;;;2.23;1.73;;;;;;;10.95;98.48;97073.13;4153284;28;20671;-86
2023/12/11 07:45:56;;;;;;;6.53;5.53;;;;;;;10.98;98.07;97068.47;4151124;28;20637;-86
2023/12/11 07:47:59;;;;;;;3.63;2.70;;;;;;;10.99;98.87;97066.66;4158551;28;20735;-90
2023/12/11 07:50:02;;;;;;;5.83;3.70;;;;;;;11.03;98.32;97073.28;4136463;28;20680;-88
2023/12/11 07:52:06;;;;;;;2.80;1.40;;;;;;;11.05;97.91;97073.97;4136906;28;20808;-87
2023/12/11 07:54:10;;;;;;;6.70;2.97;;;;;;;11.05;99.16;97056.56;4127966;28;20615;-88
2023/12/11 07:56:24;;;;;;;7.20;3.40;;;;;;;11.03;98.48;97061.06;4144051;28;20622;-87
2023/12/11 07:58:28;;;;;;;2.73;1.00;;;;;;;11.06;98.16;97062.59;4127976;28;20631;-87
2023/12/11 08:00:32;;;;;;;7.90;3.07;;;;;;;11.08;98.33;97052.84;4135286;28;20639;-86
2023/12/11 08:02:35;;;;;;;2.90;1.50;;;;;;;11.03;98.37;97041.97;4138700;28;20630;-87
2023/12/11 08:04:39;;;;;;;2.80;1.47;;;;;;;11.04;98.80;97038.44;4142139;28;20689;-86
2023/12/11 08:06:43;;;;;;;2.50;1.50;;;;;;;11.03;98.83;97050.63;4132323;28;20618;-87
2023/12/11 08:08:46;;;;;;;2.53;1.30;;;;;;;11.03;98.73;97052.41;4148254;28;20629;-88
2023/12/11 08:10:50;;;;;;;3.63;1.53;;;;;;;11.04;99.32;97057.50;4136334;28;21347;-87
2023/12/11 08:12:55;;;;;;;3.33;1.33;;;;;;;11.06;99.32;97063.41;4144820;28;21075;-88
2023/12/11 08:14:58;;;;;;;2.47;1.43;;;;;;;11.08;99.00;97079.78;4143194;28;20638;-87
2023/12/11 08:17:02;;;;;;;2.47;1.30;;;;;;;11.15;98.53;97075.66;4143225;28;21044;-87
2023/12/11 08:19:05;;;;;;;2.77;1.50;;;;;;;11.24;97.28;97082.69;4123708;28;21184;-87
2023/12/11 08:21:07;;;;;;;3.40;1.67;;;;;;;11.31;97.49;97102.09;4123204;28;20630;-88
2023/12/11 08:23:11;;;;;;;3.70;2.90;;;;;;;11.33;97.29;97110.59;4152160;28;20681;-87
2023/12/11 08:25:15;;;;;;;8.63;7.17;;;;;;;11.33;98.44;97100.16;4141826;28;20613;-87
2023/12/11 08:27:17;;;;;;;6.40;4.93;;;;;;;11.30;97.21;97090.00;4137632;28;20662;-87
2023/12/11 08:29:23;;;;;;;6.40;4.10;;;;;;;11.23;96.54;97098.47;4159282;28;20712;-87
2023/12/11 08:31:26;;;;;;;7.40;6.43;;;;;;;11.19;98.09;97097.13;4143660;28;20665;-87
2023/12/11 08:33:29;;;;;;;6.70;5.10;;;;;;;11.15;97.70;97103.53;4145592;28;20736;-87
2023/12/11 08:35:33;;;;;;;14.37;11.70;;;;;;;11.12;96.67;97095.97;4141695;28;20630;-87
2023/12/11 08:37:36;;;;;;;19.00;16.90;;;;;;;11.09;96.51;97086.63;4125482;28;20631;-87
2023/12/11 08:39:40;;;;;;;10.40;7.90;;;;;;;11.06;98.20;97081.66;4144938;28;20753;-87
2023/12/11 08:41:44;;;;;;;14.97;9.70;;;;;;;11.02;96.39;97080.31;4149681;28;20625;-87
2023/12/11 08:43:47;;;;;;;13.93;11.93;;;;;;;10.95;98.43;97068.72;4125632;28;20643;-87
2023/12/11 08:45:52;;;;;;;7.30;5.97;;;;;;;10.99;97.69;97071.88;4124369;28;21126;-87
2023/12/11 08:47:56;;;;;;;10.73;7.13;;;;;;;11.01;98.74;97070.81;4141161;28;20626;-87
2023/12/11 08:49:59;;;;;;;8.50;6.50;;;;;;;11.10;97.27;97077.84;4144298;28;20811;-87
2023/12/11 08:52:03;;;;;;;10.10;7.50;;;;;;;11.15;98.94;97070.44;4127375;28;20654;-87
2023/12/11 08:54:06;;;;;;;11.47;7.67;;;;;;;11.27;99.58;97076.38;4141417;28;20650;-87
2023/12/11 08:56:10;;;;;;;8.63;5.00;;;;;;;11.33;98.23;97076.66;4153154;28;20628;-86
2023/12/11 08:58:13;;;;;;;5.03;2.20;;;;;;;11.40;97.55;97086.44;4146550;28;20637;-87
2023/12/11 09:00:17;;;;;;;9.37;5.53;;;;;;;11.59;98.38;97089.13;4144450;28;20634;-87
2023/12/11 09:02:23;;;;;;;5.63;3.87;;;;;;;11.83;97.64;97085.16;4140410;28;20988;-87
2023/12/11 09:04:26;;;;;;;9.53;7.10;;;;;;;12.07;98.16;97077.75;4144327;28;20638;-87
2023/12/11 09:06:30;;;;;;;14.17;8.73;;;;;;;12.26;98.16;97080.31;4137225;28;20623;-87
2023/12/11 09:08:32;;;;;;;11.63;7.27;;;;;;;12.35;97.13;97082.09;4156190;28;20634;-87
2023/12/11 09:10:36;;;;;;;4.70;2.63;;;;;;;12.58;98.77;97088.66;4138523;28;20630;-87
2023/12/11 09:12:39;;;;;;;4.20;2.77;;;;;;;12.74;98.20;97101.00;4154909;28;20699;-86
2023/12/11 09:14:42;;;;;;;8.30;5.07;;;;;;;12.82;96.23;97102.91;4141043;28;20630;-87
2023/12/11 09:16:46;;;;;;;6.17;2.87;;;;;;;12.81;96.53;97099.47;4145711;28;20638;-87
2023/12/11 09:18:50;;;;;;;2.70;1.60;;;;;;;12.71;95.02;97090.00;4139172;28;21551;-87
2023/12/11 09:20:54;;;;;;;2.57;1.30;;;;;;;12.59;95.56;97091.13;4143637;28;20626;-87
2023/12/11 09:22:57;;;;;;;4.83;1.73;;;;;;;12.50;94.89;97097.19;4145656;28;20661;-87
2023/12/11 09:25:01;;;;;;;3.03;1.70;;;;;;;12.49;95.92;97092.94;4145528;28;21257;-87
2023/12/11 09:27:05;;;;;;;4.33;1.63;;;;;;;12.50;94.55;97104.22;4142979;28;20612;-87
2023/12/11 09:29:09;;;;;;;2.73;1.20;;;;;;;12.48;95.07;97107.00;4126635;28;20690;-87
2023/12/11 09:31:12;;;;;;;2.80;1.30;;;;;;;12.45;94.58;97106.47;4145634;28;20748;-87
2023/12/11 09:33:16;;;;;;;3.27;1.40;;;;;;;12.48;95.04;97100.91;4139754;28;20637;-87
2023/12/11 09:35:21;;;;;;;2.70;1.80;;;;;;;12.51;94.32;97108.47;4138543;28;20636;-87
2023/12/11 09:37:25;;;;;;;5.13;2.97;;;;;;;12.48;93.58;97117.44;4136794;28;20639;-87